createdAt,value
2023-03-06T00:00:23.145Z,-0.53
2023-03-06T00:01:23.101Z,-0.54
2023-03-06T00:02:23.119Z,-0.54
2023-03-06T00:03:23.164Z,-0.54
2023-03-06T00:04:23.109Z,-0.54
2023-03-06T00:05:23.087Z,-0.54
2023-03-06T00:06:23.067Z,-0.54
2023-03-06T00:07:23.070Z,-0.54
2023-03-06T00:08:23.073Z,-0.53
2023-03-06T00:09:23.030Z,-0.54
2023-03-06T00:10:23.034Z,-0.55
2023-03-06T00:11:23.027Z,-0.55
2023-03-06T00:12:23.005Z,-0.56
2023-03-06T00:13:23.010Z,-0.57
2023-03-06T00:14:23.003Z,-0.58
2023-03-06T00:15:22.965Z,-0.59
2023-03-06T00:16:23.140Z,-0.60
2023-03-06T00:17:22.975Z,-0.60
2023-03-06T00:18:22.968Z,-0.60
2023-03-06T00:19:22.968Z,-0.59
2023-03-06T00:20:22.946Z,-0.59
2023-03-06T00:21:22.942Z,-0.60
2023-03-06T00:22:22.908Z,-0.60
2023-03-06T00:23:22.916Z,-0.60
2023-03-06T00:24:22.923Z,-0.60
2023-03-06T00:25:22.884Z,-0.60
2023-03-06T00:26:22.890Z,-0.61
2023-03-06T00:27:22.850Z,-0.62
2023-03-06T00:28:22.843Z,-0.63
2023-03-06T00:29:22.832Z,-0.64
2023-03-06T00:30:22.852Z,-0.64
2023-03-06T00:31:22.875Z,-0.64
2023-03-06T00:32:22.816Z,-0.64
2023-03-06T00:33:22.804Z,-0.65
2023-03-06T00:34:22.790Z,-0.66
2023-03-06T00:35:22.830Z,-0.67
2023-03-06T00:36:22.790Z,-0.68
2023-03-06T00:37:22.750Z,-0.68
2023-03-06T00:38:22.755Z,-0.67
2023-03-06T00:39:22.770Z,-0.67
2023-03-06T00:40:22.743Z,-0.67
2023-03-06T00:41:22.745Z,-0.67
2023-03-06T00:42:22.739Z,-0.67
2023-03-06T00:43:22.710Z,-0.67
2023-03-06T00:44:22.689Z,-0.67
2023-03-06T00:45:22.738Z,-0.67
2023-03-06T00:46:22.696Z,-0.67
2023-03-06T00:47:22.663Z,-0.68
2023-03-06T00:48:22.674Z,-0.68
2023-03-06T00:49:22.647Z,-0.69
2023-03-06T00:50:22.642Z,-0.69
2023-03-06T00:51:22.619Z,-0.69
2023-03-06T00:52:22.629Z,-0.69
2023-03-06T00:53:22.610Z,-0.69
2023-03-06T00:54:22.610Z,-0.68
2023-03-06T00:55:22.577Z,-0.68
2023-03-06T00:56:22.573Z,-0.68
2023-03-06T00:57:22.586Z,-0.69
2023-03-06T00:58:22.573Z,-0.69
2023-03-06T00:59:22.552Z,-0.70
2023-03-06T01:00:22.534Z,-0.70
2023-03-06T01:01:22.592Z,-0.70
2023-03-06T01:02:22.607Z,-0.70
2023-03-06T01:03:22.509Z,-0.70
2023-03-06T01:04:22.490Z,-0.71
2023-03-06T01:05:22.483Z,-0.71
2023-03-06T01:06:22.474Z,-0.71
2023-03-06T01:07:22.457Z,-0.71
2023-03-06T01:08:22.501Z,-0.72
2023-03-06T01:09:22.449Z,-0.72
2023-03-06T01:10:22.446Z,-0.72
2023-03-06T01:11:22.428Z,-0.72
2023-03-06T01:12:23.568Z,-0.72
2023-03-06T01:13:22.501Z,-0.73
2023-03-06T01:14:22.465Z,-0.73
2023-03-06T01:15:22.392Z,-0.74
2023-03-06T01:16:22.388Z,-0.74
2023-03-06T01:17:22.392Z,-0.74
2023-03-06T01:18:22.367Z,-0.74
2023-03-06T01:19:22.342Z,-0.74
2023-03-06T01:20:22.354Z,-0.73
2023-03-06T01:21:22.330Z,-0.74
2023-03-06T01:22:22.317Z,-0.75
2023-03-06T01:23:22.323Z,-0.76
2023-03-06T01:24:22.300Z,-0.77
2023-03-06T01:25:22.290Z,-0.77
2023-03-06T01:26:22.295Z,-0.77
2023-03-06T01:27:22.293Z,-0.78
2023-03-06T01:28:22.308Z,-0.79
2023-03-06T01:29:22.278Z,-0.80
2023-03-06T01:30:22.269Z,-0.81
2023-03-06T01:31:22.270Z,-0.82
2023-03-06T01:32:22.267Z,-0.83
2023-03-06T01:33:22.207Z,-0.84
2023-03-06T01:34:22.203Z,-0.84
2023-03-06T01:35:22.240Z,-0.85
2023-03-06T01:36:22.191Z,-0.86
2023-03-06T01:37:22.188Z,-0.87
2023-03-06T01:38:22.179Z,-0.88
2023-03-06T01:39:22.171Z,-0.89
2023-03-06T01:40:22.150Z,-0.90
2023-03-06T01:41:22.142Z,-0.90
2023-03-06T01:42:22.208Z,-0.90
2023-03-06T01:43:22.158Z,-0.90
2023-03-06T01:44:22.112Z,-0.90
2023-03-06T01:45:22.104Z,-0.90
2023-03-06T01:46:22.098Z,-0.89
2023-03-06T01:47:22.079Z,-0.88
2023-03-06T01:48:22.093Z,-0.87
2023-03-06T01:49:22.087Z,-0.86
2023-03-06T01:50:22.057Z,-0.86
2023-03-06T01:51:22.082Z,-0.85
2023-03-06T01:52:22.037Z,-0.85
2023-03-06T01:53:22.039Z,-0.84
2023-03-06T01:54:22.015Z,-0.84
2023-03-06T01:55:22.003Z,-0.84
2023-03-06T01:56:21.999Z,-0.84
2023-03-06T01:57:22.006Z,-0.84
2023-03-06T01:58:21.986Z,-0.84
2023-03-06T01:59:21.989Z,-0.84
2023-03-06T02:00:21.953Z,-0.84
2023-03-06T02:01:21.986Z,-0.84
2023-03-06T02:02:22.015Z,-0.84
2023-03-06T02:03:21.947Z,-0.84
2023-03-06T02:04:21.944Z,-0.84
2023-03-06T02:05:21.958Z,-0.83
2023-03-06T02:06:22.005Z,-0.84
2023-03-06T02:07:21.883Z,-0.85
2023-03-06T02:08:21.893Z,-0.86
2023-03-06T02:09:21.867Z,-0.86
2023-03-06T02:10:21.891Z,-0.87
2023-03-06T02:11:21.911Z,-0.88
2023-03-06T02:12:21.882Z,-0.88
2023-03-06T02:13:21.867Z,-0.89
2023-03-06T02:14:21.838Z,-0.90
2023-03-06T02:15:21.856Z,-0.90
2023-03-06T02:16:21.851Z,-0.91
2023-03-06T02:17:21.806Z,-0.91
2023-03-06T02:18:21.784Z,-0.92
2023-03-06T02:19:21.785Z,-0.93
2023-03-06T02:20:21.777Z,-0.93
2023-03-06T02:21:21.807Z,-0.94
2023-03-06T02:22:21.764Z,-0.94
2023-03-06T02:23:21.736Z,-0.94
2023-03-06T02:24:21.730Z,-0.94
2023-03-06T02:25:21.724Z,-0.93
2023-03-06T02:26:21.725Z,-0.93
2023-03-06T02:27:21.714Z,-0.93
2023-03-06T02:28:21.700Z,-0.93
2023-03-06T02:29:21.716Z,-0.93
2023-03-06T02:30:21.680Z,-0.93
2023-03-06T02:31:21.758Z,-0.93
2023-03-06T02:32:21.685Z,-0.93
2023-03-06T02:33:21.671Z,-0.93
2023-03-06T02:34:21.675Z,-0.92
2023-03-06T02:35:21.696Z,-0.92
2023-03-06T02:36:21.630Z,-0.92
2023-03-06T02:37:21.612Z,-0.91
2023-03-06T02:38:21.612Z,-0.91
2023-03-06T02:39:21.579Z,-0.90
2023-03-06T02:40:21.615Z,-0.91
2023-03-06T02:41:21.577Z,-0.91
2023-03-06T02:42:21.595Z,-0.91
2023-03-06T02:43:21.577Z,-0.91
2023-03-06T02:44:21.564Z,-0.91
2023-03-06T02:45:21.522Z,-0.91
2023-03-06T02:46:21.536Z,-0.91
2023-03-06T02:47:21.507Z,-0.92
2023-03-06T02:48:21.510Z,-0.92
2023-03-06T02:49:21.515Z,-0.93
2023-03-06T02:50:21.534Z,-0.93
2023-03-06T02:51:21.506Z,-0.95
2023-03-06T02:52:21.511Z,-0.95
2023-03-06T02:53:21.478Z,-0.96
2023-03-06T02:54:21.523Z,-0.96
2023-03-06T02:55:21.418Z,-0.96
2023-03-06T02:56:21.406Z,-0.96
2023-03-06T02:57:21.408Z,-0.96
2023-03-06T02:58:21.454Z,-0.95
2023-03-06T02:59:21.392Z,-0.95
2023-03-06T03:00:21.376Z,-0.96
2023-03-06T03:01:21.403Z,-0.96
2023-03-06T03:02:21.370Z,-0.97
2023-03-06T03:03:21.388Z,-0.96
2023-03-06T03:04:21.373Z,-0.96
2023-03-06T03:05:21.352Z,-0.96
2023-03-06T03:06:21.329Z,-0.96
2023-03-06T03:07:21.332Z,-0.96
2023-03-06T03:08:21.299Z,-0.96
2023-03-06T03:09:21.285Z,-0.96
2023-03-06T03:10:21.323Z,-0.96
2023-03-06T03:11:21.287Z,-0.97
2023-03-06T03:12:21.257Z,-0.98
2023-03-06T03:13:21.252Z,-0.98
2023-03-06T03:14:21.253Z,-0.99
2023-03-06T03:15:21.231Z,-1.00
2023-03-06T03:16:21.344Z,-1.00
2023-03-06T03:17:21.208Z,-1.01
2023-03-06T03:18:21.220Z,-1.02
2023-03-06T03:19:21.206Z,-1.03
2023-03-06T03:20:21.183Z,-1.04
2023-03-06T03:21:21.179Z,-1.04
2023-03-06T03:22:21.178Z,-1.04
2023-03-06T03:23:21.197Z,-1.04
2023-03-06T03:24:21.206Z,-1.03
2023-03-06T03:25:21.170Z,-1.02
2023-03-06T03:26:21.129Z,-1.02
2023-03-06T03:27:21.119Z,-1.02
2023-03-06T03:28:21.121Z,-1.01
2023-03-06T03:29:21.101Z,-1.01
2023-03-06T03:30:21.109Z,-1.01
2023-03-06T03:31:21.152Z,-1.00
2023-03-06T03:32:21.166Z,-1.00
2023-03-06T03:33:21.062Z,-0.99
2023-03-06T03:34:21.055Z,-0.99
2023-03-06T03:35:21.068Z,-0.99
2023-03-06T03:36:21.068Z,-0.98
2023-03-06T03:37:21.051Z,-0.98
2023-03-06T03:38:21.061Z,-0.98
2023-03-06T03:39:21.023Z,-0.97
2023-03-06T03:40:21.005Z,-0.97
2023-03-06T03:41:21.005Z,-0.97
2023-03-06T03:42:20.970Z,-0.97
2023-03-06T03:43:20.991Z,-0.98
2023-03-06T03:44:20.971Z,-0.99
2023-03-06T03:45:20.944Z,-1.00
2023-03-06T03:46:21.072Z,-1.01
2023-03-06T03:47:20.954Z,-1.02
2023-03-06T03:48:20.929Z,-1.02
2023-03-06T03:49:20.922Z,-1.02
2023-03-06T03:50:20.934Z,-1.02
2023-03-06T03:51:20.897Z,-1.01
2023-03-06T03:52:20.905Z,-1.00
2023-03-06T03:53:20.902Z,-1.00
2023-03-06T03:54:20.881Z,-0.99
2023-03-06T03:55:20.853Z,-0.98
2023-03-06T03:56:20.865Z,-0.96
2023-03-06T03:57:20.842Z,-0.96
2023-03-06T03:58:20.831Z,-0.95
2023-03-06T03:59:20.826Z,-0.96
2023-03-06T04:00:20.803Z,-0.95
2023-03-06T04:01:20.806Z,-0.95
2023-03-06T04:02:20.848Z,-0.95
2023-03-06T04:03:20.782Z,-0.94
2023-03-06T04:04:20.794Z,-0.95
2023-03-06T04:05:20.752Z,-0.95
2023-03-06T04:06:20.757Z,-0.95
2023-03-06T04:07:20.749Z,-0.95
2023-03-06T04:08:20.729Z,-0.96
2023-03-06T04:09:20.717Z,-0.96
2023-03-06T04:10:20.731Z,-0.96
2023-03-06T04:11:20.696Z,-0.95
2023-03-06T04:12:20.712Z,-0.95
2023-03-06T04:13:20.686Z,-0.95
2023-03-06T04:14:20.670Z,-0.94
2023-03-06T04:15:20.667Z,-0.94
2023-03-06T04:16:20.724Z,-0.94
2023-03-06T04:17:20.640Z,-0.94
2023-03-06T04:18:20.659Z,-0.95
2023-03-06T04:19:20.660Z,-0.95
2023-03-06T04:20:20.601Z,-0.95
2023-03-06T04:21:20.629Z,-0.95
2023-03-06T04:22:20.582Z,-0.94
2023-03-06T04:23:20.588Z,-0.94
2023-03-06T04:24:20.565Z,-0.94
2023-03-06T04:25:20.624Z,-0.95
2023-03-06T04:26:20.547Z,-0.95
2023-03-06T04:27:20.564Z,-0.95
2023-03-06T04:28:20.527Z,-0.96
2023-03-06T04:29:20.538Z,-0.96
2023-03-06T04:30:20.527Z,-0.96
2023-03-06T04:31:20.537Z,-0.97
2023-03-06T04:32:21.589Z,-0.97
2023-03-06T04:33:20.533Z,-0.97
2023-03-06T04:34:20.481Z,-0.98
2023-03-06T04:35:20.536Z,-0.98
2023-03-06T04:36:20.477Z,-0.98
2023-03-06T04:37:20.444Z,-0.98
2023-03-06T04:38:20.448Z,-0.99
2023-03-06T04:39:20.442Z,-1.01
2023-03-06T04:40:20.425Z,-1.03
2023-03-06T04:41:20.428Z,-1.05
2023-03-06T04:42:20.400Z,-1.06
2023-03-06T04:43:20.406Z,-1.07
2023-03-06T04:44:20.394Z,-1.07
2023-03-06T04:45:20.370Z,-1.06
2023-03-06T04:46:20.380Z,-1.07
2023-03-06T04:47:20.349Z,-1.07
2023-03-06T04:48:20.357Z,-1.07
2023-03-06T04:49:20.331Z,-1.07
2023-03-06T04:50:20.363Z,-1.07
2023-03-06T04:51:20.358Z,-1.07
2023-03-06T04:52:20.316Z,-1.07
2023-03-06T04:53:20.298Z,-1.07
2023-03-06T04:54:20.320Z,-1.07
2023-03-06T04:55:20.285Z,-1.06
2023-03-06T04:56:20.264Z,-1.05
2023-03-06T04:57:20.294Z,-1.05
2023-03-06T04:58:20.246Z,-1.06
2023-03-06T04:59:20.264Z,-1.06
2023-03-06T05:00:20.276Z,-1.06
2023-03-06T05:01:20.272Z,-1.06
2023-03-06T05:02:20.278Z,-1.05
2023-03-06T05:03:20.228Z,-1.04
2023-03-06T05:04:20.218Z,-1.03
2023-03-06T05:05:20.194Z,-1.03
2023-03-06T05:06:20.173Z,-1.02
2023-03-06T05:07:20.192Z,-1.02
2023-03-06T05:08:20.138Z,-1.01
2023-03-06T05:09:20.144Z,-1.00
2023-03-06T05:10:20.188Z,-0.99
2023-03-06T05:11:20.127Z,-0.98
2023-03-06T05:12:20.107Z,-0.97
2023-03-06T05:13:20.097Z,-0.96
2023-03-06T05:14:20.114Z,-0.95
2023-03-06T05:15:20.093Z,-0.94
2023-03-06T05:16:20.119Z,-0.93
2023-03-06T05:17:20.080Z,-0.93
2023-03-06T05:18:20.066Z,-0.93
2023-03-06T05:19:20.050Z,-0.93
2023-03-06T05:20:20.016Z,-0.93
2023-03-06T05:21:20.029Z,-0.93
2023-03-06T05:22:20.006Z,-0.93
2023-03-06T05:23:20.022Z,-0.93
2023-03-06T05:24:19.981Z,-0.93
2023-03-06T05:25:20.006Z,-0.93
2023-03-06T05:26:19.938Z,-0.92
2023-03-06T05:27:19.968Z,-0.92
2023-03-06T05:28:19.941Z,-0.92
2023-03-06T05:29:19.922Z,-0.92
2023-03-06T05:30:19.882Z,-0.92
2023-03-06T05:31:19.930Z,-0.93
2023-03-06T05:32:19.967Z,-0.93
2023-03-06T05:33:19.854Z,-0.94
2023-03-06T05:34:19.834Z,-0.94
2023-03-06T05:35:19.956Z,-0.95
2023-03-06T05:36:19.832Z,-0.95
2023-03-06T05:37:19.805Z,-0.95
2023-03-06T05:38:19.877Z,-0.95
2023-03-06T05:39:19.796Z,-0.96
2023-03-06T05:40:19.783Z,-0.96
2023-03-06T05:41:19.797Z,-0.97
2023-03-06T05:42:19.811Z,-0.98
2023-03-06T05:43:19.762Z,-0.99
2023-03-06T05:44:19.755Z,-1.00
2023-03-06T05:45:19.736Z,-1.00
2023-03-06T05:46:19.842Z,-1.01
2023-03-06T05:47:19.715Z,-1.02
2023-03-06T05:48:19.724Z,-1.02
2023-03-06T05:49:19.718Z,-1.02
2023-03-06T05:50:19.695Z,-1.02
2023-03-06T05:51:19.701Z,-1.02
2023-03-06T05:52:19.671Z,-1.02
2023-03-06T05:53:19.675Z,-1.01
2023-03-06T05:54:19.661Z,-1.01
2023-03-06T05:55:19.659Z,-1.01
2023-03-06T05:56:19.704Z,-1.01
2023-03-06T05:57:19.650Z,-1.01
2023-03-06T05:58:19.608Z,-1.02
2023-03-06T05:59:19.600Z,-1.03
2023-03-06T06:00:19.638Z,-1.03
2023-03-06T06:01:19.588Z,-1.03
2023-03-06T06:02:19.608Z,-1.03
2023-03-06T06:03:19.628Z,-1.03
2023-03-06T06:04:19.553Z,-1.03
2023-03-06T06:05:19.548Z,-1.03
2023-03-06T06:06:19.545Z,-1.03
2023-03-06T06:07:19.568Z,-1.03
2023-03-06T06:08:19.534Z,-1.03
2023-03-06T06:09:19.503Z,-1.04
2023-03-06T06:10:19.519Z,-1.04
2023-03-06T06:11:19.477Z,-1.05
2023-03-06T06:12:19.473Z,-1.05
2023-03-06T06:13:19.497Z,-1.05
2023-03-06T06:14:19.469Z,-1.04
2023-03-06T06:15:19.464Z,-1.04
2023-03-06T06:16:19.495Z,-1.04
2023-03-06T06:17:19.430Z,-1.04
2023-03-06T06:18:19.416Z,-1.04
2023-03-06T06:19:19.421Z,-1.04
2023-03-06T06:20:19.417Z,-1.04
2023-03-06T06:21:19.400Z,-1.03
2023-03-06T06:22:19.378Z,-1.03
2023-03-06T06:23:19.385Z,-1.02
2023-03-06T06:24:19.381Z,-1.03
2023-03-06T06:25:19.368Z,-1.03
2023-03-06T06:26:19.370Z,-1.03
2023-03-06T06:27:19.340Z,-1.04
2023-03-06T06:28:19.318Z,-1.04
2023-03-06T06:29:19.309Z,-1.04
2023-03-06T06:30:19.316Z,-1.04
2023-03-06T06:31:19.307Z,-1.04
2023-03-06T06:32:19.352Z,-1.04
2023-03-06T06:33:19.298Z,-1.04
2023-03-06T06:34:19.259Z,-1.04
2023-03-06T06:35:19.395Z,-1.03
2023-03-06T06:36:19.291Z,-1.03
2023-03-06T06:37:19.265Z,-1.02
2023-03-06T06:38:19.238Z,-1.02
2023-03-06T06:39:19.256Z,-1.01
2023-03-06T06:40:19.234Z,-1.01
2023-03-06T06:41:51.101Z,-1.00
2023-03-06T06:42:33.304Z,-0.99
2023-03-06T06:43:19.207Z,-0.98
2023-03-06T06:44:19.161Z,-0.97
2023-03-06T06:45:19.176Z,-0.97
2023-03-06T06:46:56.205Z,-0.97
2023-03-06T06:47:24.926Z,-0.96
2023-03-06T06:48:19.212Z,-0.97
2023-03-06T06:49:19.243Z,-0.97
2023-03-06T06:50:19.115Z,-0.97
2023-03-06T06:51:19.125Z,-0.97
2023-03-06T06:52:19.159Z,-0.98
2023-03-06T06:53:19.073Z,-0.98
2023-03-06T06:54:19.090Z,-0.98
2023-03-06T06:55:19.086Z,-0.98
2023-03-06T06:56:19.070Z,-0.98
2023-03-06T06:57:19.056Z,-0.96
2023-03-06T06:58:19.059Z,-0.94
2023-03-06T06:59:19.042Z,-0.92
2023-03-06T07:00:19.023Z,-0.91
2023-03-06T07:01:19.033Z,-0.90
2023-03-06T07:02:18.987Z,-0.90
2023-03-06T07:03:18.985Z,-0.89
2023-03-06T07:04:19.001Z,-0.89
2023-03-06T07:05:20.260Z,-0.88
2023-03-06T07:06:18.962Z,-0.86
2023-03-06T07:07:18.964Z,-0.84
2023-03-06T07:08:18.955Z,-0.82
2023-03-06T07:09:18.939Z,-0.81
2023-03-06T07:10:20.757Z,-0.79
2023-03-06T07:11:18.918Z,-0.77
2023-03-06T07:12:18.942Z,-0.76
2023-03-06T07:13:18.882Z,-0.75
2023-03-06T07:14:18.902Z,-0.74
2023-03-06T07:15:18.894Z,-0.73
2023-03-06T07:16:18.932Z,-0.72
2023-03-06T07:17:18.865Z,-0.70
2023-03-06T07:18:18.864Z,-0.69
2023-03-06T07:19:18.827Z,-0.67
2023-03-06T07:20:18.848Z,-0.66
2023-03-06T07:21:18.823Z,-0.65
2023-03-06T07:22:18.817Z,-0.65
2023-03-06T07:23:18.796Z,-0.64
2023-03-06T07:24:18.799Z,-0.64
2023-03-06T07:25:18.774Z,-0.63
2023-03-06T07:26:18.778Z,-0.62
2023-03-06T07:27:18.824Z,-0.62
2023-03-06T07:28:19.673Z,-0.61
2023-03-06T07:29:18.736Z,-0.60
2023-03-06T07:30:18.737Z,-0.59
2023-03-06T07:31:18.775Z,-0.58
2023-03-06T07:32:18.742Z,-0.58
2023-03-06T07:33:18.697Z,-0.57
2023-03-06T07:34:18.704Z,-0.56
2023-03-06T07:35:20.406Z,-0.54
2023-03-06T07:36:18.710Z,-0.53
2023-03-06T07:37:18.910Z,-0.52
2023-03-06T07:38:18.652Z,-0.51
2023-03-06T07:39:18.637Z,-0.49
2023-03-06T07:40:18.638Z,-0.48
2023-03-06T07:41:20.446Z,-0.47
2023-03-06T07:42:18.615Z,-0.46
2023-03-06T07:43:19.740Z,-0.47
2023-03-06T07:44:18.588Z,-0.47
2023-03-06T07:45:18.698Z,-0.47
2023-03-06T07:46:18.664Z,-0.46
2023-03-06T07:47:18.573Z,-0.45
2023-03-06T07:48:18.575Z,-0.44
2023-03-06T07:49:18.563Z,-0.44
2023-03-06T07:50:18.588Z,-0.44
2023-03-06T07:51:18.535Z,-0.43
2023-03-06T07:52:18.525Z,-0.42
2023-03-06T07:53:18.499Z,-0.41
2023-03-06T07:54:18.565Z,-0.41
2023-03-06T07:55:18.532Z,-0.40
2023-03-06T07:56:18.514Z,-0.40
2023-03-06T07:57:18.487Z,-0.38
2023-03-06T07:58:18.481Z,-0.37
2023-03-06T07:59:18.461Z,-0.36
2023-03-06T08:00:18.536Z,-0.35
2023-03-06T08:01:18.435Z,-0.35
2023-03-06T08:02:18.448Z,-0.34
2023-03-06T08:03:18.463Z,-0.33
2023-03-06T08:04:18.475Z,-0.32
2023-03-06T08:05:18.401Z,-0.30
2023-03-06T08:06:18.384Z,-0.29
2023-03-06T08:07:18.407Z,-0.27
2023-03-06T08:08:18.364Z,-0.24
2023-03-06T08:09:18.367Z,-0.23
2023-03-06T08:10:18.362Z,-0.21
2023-03-06T08:11:18.344Z,-0.20
2023-03-06T08:12:18.319Z,-0.18
2023-03-06T08:13:18.316Z,-0.18
2023-03-06T08:14:18.322Z,-0.16
2023-03-06T08:15:18.298Z,-0.15
2023-03-06T08:16:18.313Z,-0.14
2023-03-06T08:17:18.278Z,-0.12
2023-03-06T08:18:18.306Z,-0.12
2023-03-06T08:19:18.259Z,-0.11
2023-03-06T08:20:18.276Z,-0.09
2023-03-06T08:21:18.235Z,-0.08
2023-03-06T08:22:18.237Z,-0.07
2023-03-06T08:23:18.216Z,-0.05
2023-03-06T08:24:18.210Z,-0.02
2023-03-06T08:25:18.202Z,0.01
2023-03-06T08:26:18.219Z,0.03
2023-03-06T08:27:18.192Z,0.04
2023-03-06T08:28:18.159Z,0.02
2023-03-06T08:29:18.150Z,-0.02
2023-03-06T08:30:18.142Z,-0.04
2023-03-06T08:31:18.153Z,-0.05
2023-03-06T08:32:18.152Z,-0.06
2023-03-06T08:33:18.121Z,-0.07
2023-03-06T08:34:18.110Z,-0.08
2023-03-06T08:35:18.094Z,-0.07
2023-03-06T08:36:18.087Z,-0.06
2023-03-06T08:37:18.118Z,-0.06
2023-03-06T08:38:18.116Z,-0.05
2023-03-06T08:39:18.070Z,-0.05
2023-03-06T08:40:18.083Z,-0.04
2023-03-06T08:41:18.043Z,-0.02
2023-03-06T08:42:18.039Z,0.00
2023-03-06T08:43:18.016Z,0.01
2023-03-06T08:44:18.031Z,0.03
2023-03-06T08:45:18.021Z,0.06
2023-03-06T08:46:17.993Z,0.10
2023-03-06T08:47:18.009Z,0.13
2023-03-06T08:48:17.972Z,0.14
2023-03-06T08:49:17.951Z,0.18
2023-03-06T08:50:17.953Z,0.23
2023-03-06T08:51:17.942Z,0.27
2023-03-06T08:52:17.941Z,0.31
2023-03-06T08:53:17.974Z,0.32
2023-03-06T08:54:17.915Z,0.31
2023-03-06T08:55:17.907Z,0.31
2023-03-06T08:56:17.889Z,0.31
2023-03-06T08:57:17.887Z,0.33
2023-03-06T08:58:17.874Z,0.35
2023-03-06T08:59:17.858Z,0.35
2023-03-06T09:00:17.885Z,0.35
2023-03-06T09:01:17.867Z,0.33
2023-03-06T09:02:17.852Z,0.30
2023-03-06T09:03:17.824Z,0.29
2023-03-06T09:04:17.808Z,0.28
2023-03-06T09:05:17.814Z,0.28
2023-03-06T09:06:17.852Z,0.28
2023-03-06T09:07:17.782Z,0.29
2023-03-06T09:08:17.798Z,0.26
2023-03-06T09:09:17.782Z,0.22
2023-03-06T09:10:17.810Z,0.19
2023-03-06T09:11:17.735Z,0.18
2023-03-06T09:12:17.732Z,0.16
2023-03-06T09:13:17.742Z,0.13
2023-03-06T09:14:17.714Z,0.09
2023-03-06T09:15:17.838Z,0.09
2023-03-06T09:16:17.737Z,0.12
2023-03-06T09:17:17.730Z,0.18
2023-03-06T09:18:17.673Z,0.22
2023-03-06T09:19:17.667Z,0.25
2023-03-06T09:20:17.659Z,0.27
2023-03-06T09:21:17.734Z,0.30
2023-03-06T09:22:17.643Z,0.33
2023-03-06T09:23:17.614Z,0.35
2023-03-06T09:24:17.631Z,0.34
2023-03-06T09:25:17.602Z,0.32
2023-03-06T09:26:17.658Z,0.31
2023-03-06T09:27:17.579Z,0.32
2023-03-06T09:28:17.607Z,0.34
2023-03-06T09:29:17.615Z,0.39
2023-03-06T09:30:17.561Z,0.41
2023-03-06T09:31:17.696Z,0.42
2023-03-06T09:32:17.565Z,0.42
2023-03-06T09:33:17.539Z,0.45
2023-03-06T09:34:17.528Z,0.48
2023-03-06T09:35:17.566Z,0.52
2023-03-06T09:36:17.530Z,0.56
2023-03-06T09:37:17.502Z,0.57
2023-03-06T09:38:17.529Z,0.58
2023-03-06T09:39:17.468Z,0.60
2023-03-06T09:40:17.457Z,0.61
2023-03-06T09:41:17.470Z,0.59
2023-03-06T09:42:17.459Z,0.57
2023-03-06T09:43:17.436Z,0.59
2023-03-06T09:44:17.412Z,0.64
2023-03-06T09:45:17.462Z,0.69
2023-03-06T09:46:17.404Z,0.71
2023-03-06T09:47:17.406Z,0.69
2023-03-06T09:48:17.391Z,0.66
2023-03-06T09:49:17.366Z,0.64
2023-03-06T09:50:17.410Z,0.63
2023-03-06T09:51:17.442Z,0.64
2023-03-06T09:52:17.334Z,0.63
2023-03-06T09:53:17.339Z,0.63
2023-03-06T09:54:17.317Z,0.64
2023-03-06T09:55:17.342Z,0.65
2023-03-06T09:56:17.397Z,0.67
2023-03-06T09:57:17.281Z,0.72
2023-03-06T09:58:17.291Z,0.77
2023-03-06T09:59:17.301Z,0.83
2023-03-06T10:00:17.329Z,0.90
2023-03-06T10:01:17.260Z,0.93
2023-03-06T10:02:17.342Z,0.98
2023-03-06T10:03:17.307Z,1.06
2023-03-06T10:04:17.217Z,1.11
2023-03-06T10:05:17.233Z,1.12
2023-03-06T10:06:17.226Z,1.10
2023-03-06T10:07:17.227Z,1.05
2023-03-06T10:08:17.199Z,1.03
2023-03-06T10:09:17.156Z,1.04
2023-03-06T10:10:17.166Z,1.04
2023-03-06T10:11:17.152Z,1.01
2023-03-06T10:12:17.153Z,0.95
2023-03-06T10:13:17.179Z,0.91
2023-03-06T10:14:17.151Z,0.91
2023-03-06T10:15:17.126Z,0.91
2023-03-06T10:16:17.158Z,0.95
2023-03-06T10:17:17.151Z,1.00
2023-03-06T10:18:17.099Z,1.03
2023-03-06T10:19:17.095Z,1.08
2023-03-06T10:20:17.063Z,1.15
2023-03-06T10:21:19.432Z,1.24
2023-03-06T10:22:17.037Z,1.32
2023-03-06T10:23:17.038Z,1.37
2023-03-06T10:24:17.038Z,1.39
2023-03-06T10:25:17.022Z,1.39
2023-03-06T10:26:17.078Z,1.42
2023-03-06T10:27:17.061Z,1.47
2023-03-06T10:28:16.991Z,1.53
2023-03-06T10:29:16.981Z,1.55
2023-03-06T10:30:16.965Z,1.55
2023-03-06T10:31:17.048Z,1.54
2023-03-06T10:32:17.031Z,1.53
2023-03-06T10:33:16.941Z,1.48
2023-03-06T10:34:16.937Z,1.40
2023-03-06T10:35:17.084Z,1.35
2023-03-06T10:36:16.921Z,1.34
2023-03-06T10:37:16.892Z,1.34
2023-03-06T10:38:16.894Z,1.36
2023-03-06T10:39:16.876Z,1.42
2023-03-06T10:40:16.863Z,1.48
2023-03-06T10:41:16.883Z,1.52
2023-03-06T10:42:16.867Z,1.54
2023-03-06T10:43:16.833Z,1.55
2023-03-06T10:44:16.860Z,1.57
2023-03-06T10:45:16.831Z,1.60
2023-03-06T10:46:16.851Z,1.64
2023-03-06T10:47:16.803Z,1.69
2023-03-06T10:48:16.806Z,1.74
2023-03-06T10:49:16.773Z,1.75
2023-03-06T10:50:16.781Z,1.73
2023-03-06T10:51:18.574Z,1.66
2023-03-06T10:52:16.751Z,1.59
2023-03-06T10:53:16.759Z,1.56
2023-03-06T10:54:16.776Z,1.53
2023-03-06T10:55:16.708Z,1.48
2023-03-06T10:56:16.712Z,1.46
2023-03-06T10:57:16.709Z,1.47
2023-03-06T10:58:16.685Z,1.49
2023-03-06T10:59:16.684Z,1.52
2023-03-06T11:00:16.693Z,1.52
2023-03-06T11:01:16.700Z,1.51
2023-03-06T11:02:16.681Z,1.48
2023-03-06T11:03:16.668Z,1.45
2023-03-06T11:04:16.658Z,1.46
2023-03-06T11:05:16.618Z,1.50
2023-03-06T11:06:16.616Z,1.54
2023-03-06T11:07:16.594Z,1.57
2023-03-06T11:08:16.608Z,1.57
2023-03-06T11:09:16.626Z,1.54
2023-03-06T11:10:16.580Z,1.52
2023-03-06T11:11:22.418Z,1.50
2023-03-06T11:12:16.549Z,1.47
2023-03-06T11:13:16.527Z,1.48
2023-03-06T11:14:16.533Z,1.53
2023-03-06T11:15:16.553Z,1.58
2023-03-06T11:16:16.562Z,1.61
2023-03-06T11:17:16.511Z,1.63
2023-03-06T11:18:16.503Z,1.64
2023-03-06T11:19:16.475Z,1.63
2023-03-06T11:20:16.466Z,1.65
2023-03-06T11:21:16.477Z,1.67
2023-03-06T11:22:16.438Z,1.65
2023-03-06T11:23:16.454Z,1.60
2023-03-06T11:24:16.425Z,1.53
2023-03-06T11:25:16.411Z,1.48
2023-03-06T11:26:16.437Z,1.42
2023-03-06T11:27:16.497Z,1.37
2023-03-06T11:28:16.384Z,1.34
2023-03-06T11:29:16.451Z,1.32
2023-03-06T11:30:16.385Z,1.33
2023-03-06T11:31:16.462Z,1.34
2023-03-06T11:32:16.362Z,1.37
2023-03-06T11:33:16.338Z,1.43
2023-03-06T11:34:16.322Z,1.47
2023-03-06T11:35:16.350Z,1.47
2023-03-06T11:36:16.315Z,1.49
2023-03-06T11:37:16.315Z,1.48
2023-03-06T11:38:16.322Z,1.46
2023-03-06T11:39:16.272Z,1.44
2023-03-06T11:40:16.263Z,1.47
2023-03-06T11:41:16.250Z,1.54
2023-03-06T11:42:16.260Z,1.58
2023-03-06T11:43:16.257Z,1.59
2023-03-06T11:44:16.221Z,1.59
2023-03-06T11:45:16.239Z,1.58
2023-03-06T11:46:16.242Z,1.58
2023-03-06T11:47:16.222Z,1.55
2023-03-06T11:48:16.224Z,1.52
2023-03-06T11:49:16.189Z,1.55
2023-03-06T11:50:16.163Z,1.64
2023-03-06T11:51:16.165Z,1.73
2023-03-06T11:52:16.179Z,1.77
2023-03-06T11:53:16.143Z,1.80
2023-03-06T11:54:16.146Z,1.83
2023-03-06T11:55:16.126Z,1.86
2023-03-06T11:56:16.102Z,1.95
2023-03-06T11:57:16.114Z,2.05
2023-03-06T11:58:16.090Z,2.16
2023-03-06T11:59:16.073Z,2.21
2023-03-06T12:00:16.091Z,2.17
2023-03-06T12:01:16.062Z,2.15
2023-03-06T12:02:16.117Z,2.13
2023-03-06T12:03:16.043Z,2.07
2023-03-06T12:04:16.046Z,2.02
2023-03-06T12:05:16.110Z,2.03
2023-03-06T12:06:16.019Z,2.26
2023-03-06T12:07:16.026Z,2.64
2023-03-06T12:08:15.982Z,2.98
2023-03-06T12:09:15.996Z,3.29
2023-03-06T12:10:16.054Z,3.50
2023-03-06T12:13:15.951Z,3.91
2023-03-06T12:14:15.922Z,3.96
2023-03-06T12:15:15.951Z,3.91
2023-03-06T12:16:15.963Z,3.72
2023-03-06T12:17:15.951Z,3.63
2023-03-06T12:18:15.911Z,3.59
2023-03-06T12:19:15.916Z,3.48
2023-03-06T12:20:15.908Z,3.36
2023-03-06T12:21:15.856Z,3.23
2023-03-06T12:22:15.842Z,3.09
2023-03-06T12:23:16.070Z,2.98
2023-03-06T12:24:15.829Z,3.00
2023-03-06T12:25:15.818Z,3.12
2023-03-06T12:26:15.805Z,3.27
2023-03-06T12:27:15.797Z,3.36
2023-03-06T12:28:15.779Z,3.31
2023-03-06T12:29:15.780Z,3.25
2023-03-06T12:30:15.810Z,3.22
2023-03-06T12:31:15.746Z,3.18
2023-03-06T12:32:15.865Z,3.14
2023-03-06T12:33:15.736Z,3.18
2023-03-06T12:34:15.735Z,3.23
2023-03-06T12:35:15.723Z,3.23
2023-03-06T12:36:15.724Z,3.23
2023-03-06T12:37:15.757Z,3.17
2023-03-06T12:38:15.671Z,3.10
2023-03-06T12:39:15.673Z,3.08
2023-03-06T12:40:15.800Z,3.05
2023-03-06T12:41:15.684Z,3.05
2023-03-06T12:42:23.195Z,3.07
2023-03-06T12:43:15.629Z,3.06
2023-03-06T12:44:15.618Z,3.00
2023-03-06T12:45:15.667Z,2.90
2023-03-06T12:46:15.673Z,2.77
2023-03-06T12:47:15.611Z,2.67
2023-03-06T12:48:15.609Z,2.62
2023-03-06T12:49:22.996Z,2.59
2023-03-06T12:50:15.559Z,2.56
2023-03-06T12:51:15.556Z,2.52
2023-03-06T12:52:18.559Z,2.48
2023-03-06T12:53:15.556Z,2.44
2023-03-06T12:54:15.524Z,2.38
2023-03-06T12:55:15.525Z,2.34
2023-03-06T12:56:15.490Z,2.31
2023-03-06T12:57:15.615Z,2.30
2023-03-06T12:58:15.492Z,2.28
2023-03-06T12:59:15.474Z,2.27
2023-03-06T13:00:16.190Z,2.27
2023-03-06T13:01:15.559Z,2.27
2023-03-06T13:02:15.486Z,2.27
2023-03-06T13:03:15.455Z,2.20